Main page
METAR-TAF:

METAR-TAF

Airports :

Martinique Aimé Césaire International Airport

Fort-de-France, Martinique

latitude: 14-36N, longitude: 061-00W, elevation: 5 m

Current weather observation

The report was made 21 minutes ago, at 23:00 UTC
Wind 7 kt from the East
Temperature 25°C
Humidity 74%
Pressure 1017 hPa
Visibility 10 km or more
no clouds below 1500 m and no cumulonimbus

METAR: TFFF 212300Z AUTO 09007KT CAVOK 25/20 Q1017

Time: 19:21 (23:21 UTC)

Forecast

The report was made 19 hours and 21 minutes ago, at 04:00 UTC
Forecast valid from 21 at 06 UTC to 22 at 06 UTC
Wind 6 kt from the East/Southeast
Visibility 10 km or more
Scattered clouds at a height of 2600 ft

TAF: TFFF 210400Z 2106/2206 11006KT 9999 SCT026

Weather observations and forecasts of more than 4000 airports (METAR and TAF reports).

The available stations are represented by yellow and red dots on the map.

Hover mouse over dot to see the name of the station.

Then click to see weather observations and forecasts.

To change the map : click on the green buttons with a black cross to zoom in, on the green button with a dash to zoom out, or on the green arrows for adjacent maps.


METAR-TAF: